Main page
METAR-TAF:

METAR-TAF

Airports :

Bahrain, Bahrain

Bahrain International Airport

latitude: 26-16N, longitude: 050-39E, elevation: 2 m

Current weather observation

The report was made 1 hour and 1 minutes ago, at 14:00 UTC
Wind 5 kt from the East
Temperature 24°C
Humidity 57%
Pressure 1014 hPa
Visibility 10 km or more
Few clouds at a height of 4000 ft, Towering cumulus.

METAR: OBBI 291400Z 10005KT 9999 FEW040TCU 24/15 Q1014 NOSIG

Time: 18:01 (15:01 UTC)

Forecast

The report was made 4 hours and 1 minutes ago, at 11:00 UTC
Forecast valid from 29 at 12 UTC to 30 at 18 UTC
Wind 10 kt from the North/Northeast
Visibility 10 km or more
no clouds below 1500 m and no cumulonimbus
Probability 30% :
Temporary
from 29 at 12 UTC to 30 at 03 UTC
Wind 20 kt from variable directions with gusts up to 35 kt
Visibility: 5000 m
Scattered clouds at a height of 4000 ft, Cumulonimbus.
thunderstorm, rain

TAF: OBBI 291100Z 2912/3018 03010KT CAVOK PROB30 TEMPO 2912/3003 VRB20G35KT 5000 TSRA SCT040CB

Weather observations and forecasts of more than 4000 airports (METAR and TAF reports).

The available stations are represented by yellow and red dots on the map.

Hover mouse over dot to see the name of the station.

Then click to see weather observations and forecasts.

To change the map : click on the green buttons with a black cross to zoom in, on the green button with a dash to zoom out, or on the green arrows for adjacent maps.


METAR-TAF: